Time;durP1;ratioP1;P1;durP2;ratioP2;P2;SDS_P1;SDS_P2;PMS_P1;PMS_P2;Temp;Humidity;BMP_temperature;BMP_pressure;BME280_temperature;BME280_humidity;BME280_pressure;Samples;Min_cycle;Max_cycle;Signal;HPM_P1;HPM_P2
2022/11/05 00:10:27;;;;;;;9.00;6.03;;;;;;;9.88;87.02;97740.19;4959603;28;20053;-84
2022/11/05 00:18:24;;;;;;;9.30;6.15;;;;;;;9.68;86.54;97755.94;4963839;28;20057;-84
2022/11/05 00:20:50;;;;;;;9.23;6.07;;;;;;;9.60;86.39;97758.75;4974011;28;20027;-84
2022/11/05 00:26:04;;;;;;;7.57;6.38;;;;;;;9.61;86.86;97763.00;4983603;28;20117;-85
2022/11/05 00:28:30;;;;;;;7.95;6.13;;;;;;;9.55;86.87;97766.41;4972313;28;20049;-84
2022/11/05 00:31:13;;;;;;;7.25;6.20;;;;;;;9.60;87.08;97772.66;4974648;28;20053;-84
2022/11/05 00:33:41;;;;;;;10.05;6.53;;;;;;;9.55;86.74;97771.66;4974490;28;20086;-84
2022/11/05 00:36:09;;;;;;;9.15;6.60;;;;;;;9.62;87.05;97778.50;4989156;28;20082;-84
2022/11/05 00:38:35;;;;;;;9.50;7.03;;;;;;;9.59;86.69;97778.06;4974190;28;20097;-84
2022/11/05 00:41:01;;;;;;;10.60;6.72;;;;;;;9.64;87.19;97791.38;4974244;28;20391;-85
2022/11/05 00:46:11;;;;;;;11.13;6.90;;;;;;;9.70;87.48;97795.81;4974177;28;20038;-84
2022/11/05 00:51:21;;;;;;;7.40;6.13;;;;;;;9.72;87.19;97793.81;4973667;28;20113;-84
2022/11/05 00:53:47;;;;;;;9.85;6.20;;;;;;;9.77;87.15;97783.50;4973893;28;20042;-84
2022/11/05 00:56:12;;;;;;;10.02;6.57;;;;;;;9.79;87.27;97789.38;4973810;28;20436;-84
2022/11/05 00:58:38;;;;;;;9.55;6.82;;;;;;;9.83;87.39;97787.94;4973797;28;20034;-84
2022/11/05 01:01:04;;;;;;;10.48;6.40;;;;;;;9.69;86.14;97788.97;4973331;28;20118;-84
2022/11/05 01:03:36;;;;;;;9.18;6.80;;;;;;;9.68;87.29;97792.59;4973823;28;20038;-85
2022/11/05 01:06:15;;;;;;;12.02;7.32;;;;;;;9.71;87.58;97800.03;4973776;28;20069;-84
2022/11/05 01:08:44;;;;;;;9.07;6.18;;;;;;;9.55;87.27;97793.41;4973329;28;20457;-84
2022/11/05 01:11:32;;;;;;;7.65;5.75;;;;;;;9.54;87.37;97814.53;4972911;28;20031;-84
2022/11/05 01:14:06;;;;;;;9.30;5.88;;;;;;;9.59;88.44;97815.53;4973960;28;20042;-84
2022/11/05 01:16:32;;;;;;;8.90;5.72;;;;;;;9.62;88.54;97814.34;4973724;28;20110;-84
2022/11/05 01:18:57;;;;;;;10.40;6.00;;;;;;;9.62;88.34;97815.16;4974017;28;20457;-84
2022/11/05 01:21:23;;;;;;;9.10;5.93;;;;;;;9.65;88.00;97808.69;4973511;28;20035;-84
2022/11/05 01:23:48;;;;;;;9.13;6.30;;;;;;;9.61;87.99;97810.91;4973715;28;20189;-84
2022/11/05 01:26:14;;;;;;;8.38;5.63;;;;;;;9.61;88.23;97810.91;4972605;28;20100;-84
2022/11/05 01:28:39;;;;;;;8.90;6.80;;;;;;;9.54;86.95;97809.31;4973287;28;20039;-84
2022/11/05 01:31:05;;;;;;;10.48;6.80;;;;;;;9.54;86.52;97811.94;4972750;28;20054;-85
2022/11/05 01:33:30;;;;;;;10.07;6.90;;;;;;;9.54;87.18;97832.88;4972605;28;20038;-84
2022/11/05 01:35:56;;;;;;;9.93;7.60;;;;;;;9.56;87.38;97826.41;4972702;28;20105;-84
2022/11/05 01:38:22;;;;;;;9.68;7.80;;;;;;;9.55;87.10;97832.66;4973554;28;20174;-84
2022/11/05 01:40:47;;;;;;;11.32;8.68;;;;;;;9.54;87.46;97827.63;4973413;28;20082;-84
2022/11/05 01:43:17;;;;;;;9.73;7.28;;;;;;;9.64;87.55;97844.53;4973646;28;20475;-84
2022/11/05 01:45:50;;;;;;;11.18;8.48;;;;;;;9.69;87.81;97846.56;4973721;28;20035;-84
2022/11/05 01:48:21;;;;;;;12.02;7.22;;;;;;;9.63;87.54;97829.84;4971218;28;20034;-84
2022/11/05 01:51:14;;;;;;;9.38;7.55;;;;;;;9.74;87.62;97846.78;4973411;28;20045;-84
2022/11/05 01:54:06;;;;;;;9.68;6.85;;;;;;;9.71;87.28;97838.50;4988245;28;20046;-84
2022/11/05 01:56:42;;;;;;;11.73;6.75;;;;;;;9.70;87.21;97842.94;4973696;28;20043;-84
2022/11/05 01:59:21;;;;;;;9.10;7.03;;;;;;;9.72;87.17;97848.81;4971794;28;20487;-84
2022/11/05 02:01:47;;;;;;;9.02;7.10;;;;;;;9.72;87.33;97845.38;4971895;28;20046;-84
2022/11/05 02:04:27;;;;;;;11.15;7.85;;;;;;;9.73;87.38;97847.78;4988229;28;20043;-84
2022/11/05 02:06:53;;;;;;;9.23;6.78;;;;;;;9.76;87.48;97855.25;4973725;28;20487;-84
2022/11/05 02:09:30;;;;;;;9.48;6.95;;;;;;;9.75;87.60;97856.25;4972665;28;20100;-84
2022/11/05 02:11:57;;;;;;;8.75;6.35;;;;;;;9.77;87.44;97849.00;4972724;28;20054;-84
2022/11/05 02:14:22;;;;;;;10.75;6.85;;;;;;;9.79;87.42;97852.22;4972797;28;20031;-83
2022/11/05 02:17:17;;;;;;;10.23;6.70;;;;;;;9.70;86.60;97842.94;4972648;28;20069;-84
2022/11/05 02:20:11;;;;;;;8.27;6.30;;;;;;;9.79;86.32;97865.34;4973021;28;20077;-84
2022/11/05 02:23:34;;;;;;;9.35;6.40;;;;;;;9.81;86.57;97860.69;4973449;28;20042;-85
2022/11/05 02:26:45;;;;;;;9.65;6.57;;;;;;;9.78;86.83;97853.25;4956028;28;20046;-84
2022/11/05 02:29:50;;;;;;;7.93;6.32;;;;;;;9.84;86.75;97862.13;4988089;28;20031;-84
2022/11/05 02:33:00;;;;;;;9.23;6.07;;;;;;;9.78;86.69;97865.53;4988701;28;20077;-84
2022/11/05 02:35:42;;;;;;;7.10;6.38;;;;;;;9.71;87.09;97868.13;4972905;28;20038;-84
2022/11/05 02:38:22;;;;;;;10.18;7.07;;;;;;;9.72;87.03;97871.56;4973140;28;20039;-85
2022/11/05 02:41:07;;;;;;;8.07;6.57;;;;;;;9.68;87.71;97865.91;4984986;28;20035;-84
2022/11/05 02:44:18;;;;;;;8.35;6.60;;;;;;;9.73;87.24;97870.56;4952698;29;20118;-84
2022/11/05 02:47:06;;;;;;;;;;;;;;;9.80;87.11;97882.66;4952990;28;20094;-85
2022/11/05 02:50:13;;;;;;;7.30;6.43;;;;;;;9.80;86.65;97890.50;4969965;28;19964;-84
2022/11/05 02:53:22;;;;;;;8.95;6.88;;;;;;;9.80;86.91;97881.84;4972898;28;20479;-85
2022/11/05 02:56:06;;;;;;;8.70;6.40;;;;;;;9.77;85.78;97896.13;4971014;28;20038;-84
2022/11/05 02:58:33;;;;;;;9.52;6.97;;;;;;;9.75;86.70;97897.34;4972669;28;20102;-84
2022/11/05 03:01:00;;;;;;;8.43;6.55;;;;;;;9.68;86.64;97881.63;4972020;28;20050;-84
2022/11/05 03:03:31;;;;;;;9.90;6.70;;;;;;;9.72;86.66;97882.06;4987137;28;20057;-84
2022/11/05 03:06:20;;;;;;;8.43;6.77;;;;;;;9.79;86.80;97881.03;4972286;28;20461;-84
2022/11/05 03:09:27;;;;;;;8.18;5.95;;;;;;;9.81;86.59;97880.84;4956389;28;20391;-84
2022/11/05 03:12:39;;;;;;;10.13;6.03;;;;;;;9.74;86.51;97872.97;4966416;28;20054;-84
2022/11/05 03:15:13;;;;;;;9.00;6.03;;;;;;;9.78;86.81;97889.91;4974151;28;20098;-84
2022/11/05 03:17:57;;;;;;;7.82;6.28;;;;;;;9.76;86.36;97884.06;4976303;28;20117;-84
2022/11/05 03:20:41;;;;;;;7.38;6.20;;;;;;;9.75;86.50;97892.13;4976290;28;20034;-84
2022/11/05 03:23:32;;;;;;;8.18;6.30;;;;;;;9.66;86.47;97881.03;4975168;28;20035;-84
2022/11/05 03:26:32;;;;;;;7.30;6.25;;;;;;;9.65;86.50;97889.88;4976387;28;20486;-84
2022/11/05 03:29:11;;;;;;;7.80;6.40;;;;;;;9.63;86.41;97884.84;4989611;28;20491;-84
2022/11/05 03:31:40;;;;;;;8.35;6.05;;;;;;;9.67;86.32;97887.88;4975882;28;20030;-84
2022/11/05 03:34:10;;;;;;;9.68;6.85;;;;;;;9.65;86.19;97892.47;4975698;28;20042;-84
2022/11/05 03:36:50;;;;;;;9.63;6.85;;;;;;;9.62;86.21;97893.69;4975529;28;20030;-84
2022/11/05 03:39:30;;;;;;;9.33;7.10;;;;;;;9.61;86.28;97896.53;4974282;28;20041;-84
2022/11/05 03:41:58;;;;;;;9.55;6.55;;;;;;;9.60;86.66;97895.72;4975596;28;20097;-84
2022/11/05 03:44:31;;;;;;;8.23;6.57;;;;;;;9.43;85.93;97904.13;4975583;28;20035;-84
2022/11/05 03:47:07;;;;;;;8.30;5.88;;;;;;;9.24;87.34;97913.53;4973192;28;20108;-84
2022/11/05 03:50:10;;;;;;;9.90;6.38;;;;;;;9.12;88.39;97910.66;4975526;28;20525;-84
2022/11/05 03:53:24;;;;;;;9.07;6.63;;;;;;;9.17;88.99;97916.09;4975239;28;20045;-84
2022/11/05 03:56:01;;;;;;;8.80;6.10;;;;;;;9.11;88.75;97928.13;4990121;28;20118;-84
2022/11/05 03:58:33;;;;;;;10.20;6.05;;;;;;;9.20;89.29;97923.56;4975246;28;20081;-84
2022/11/05 04:01:01;;;;;;;9.85;6.50;;;;;;;9.15;89.10;97912.88;4974061;28;20117;-84
2022/11/05 04:03:34;;;;;;;7.28;6.25;;;;;;;9.26;89.39;97924.59;4973771;28;20368;-84
2022/11/05 04:14:15;;;;;;;11.32;6.80;;;;;;;9.00;89.95;97930.53;4975119;28;20740;-84
2022/11/05 04:24:53;;;;;;;10.70;6.40;;;;;;;9.19;90.31;97921.94;4975315;28;20062;-84
2022/11/05 04:27:19;;;;;;;11.48;6.57;;;;;;;9.22;89.37;97929.41;4975037;28;20070;-84
2022/11/05 04:32:28;;;;;;;12.07;6.72;;;;;;;9.23;89.71;97935.44;4974450;28;20104;-83
2022/11/05 04:34:54;;;;;;;8.90;6.40;;;;;;;9.21;88.90;97924.38;4974133;28;20475;-84
2022/11/05 04:37:19;;;;;;;9.40;6.53;;;;;;;9.25;89.17;97936.88;4986366;28;20054;-83
2022/11/05 04:39:45;;;;;;;10.90;6.47;;;;;;;9.27;88.16;97937.47;4971845;28;20406;-84
2022/11/05 04:42:10;;;;;;;9.23;6.40;;;;;;;9.24;88.51;97935.25;4974238;28;20031;-84
2022/11/05 04:44:36;;;;;;;11.38;6.32;;;;;;;9.30;88.24;97937.09;4989574;28;20122;-84
2022/11/05 04:47:01;;;;;;;9.63;7.18;;;;;;;9.29;88.04;97935.47;4972587;28;20398;-83
2022/11/05 04:49:36;;;;;;;12.13;6.97;;;;;;;9.18;87.74;97937.84;4973672;28;20041;-84
2022/11/05 04:52:02;;;;;;;10.15;7.18;;;;;;;9.24;88.47;97943.13;4974242;28;20035;-83
2022/11/05 04:54:27;;;;;;;13.50;6.72;;;;;;;9.23;88.33;97949.31;4988976;28;20404;-84
2022/11/05 04:56:53;;;;;;;9.77;6.50;;;;;;;9.21;88.75;97953.16;4973952;28;20102;-83
2022/11/05 04:59:18;;;;;;;11.20;7.38;;;;;;;9.25;88.26;97960.44;4973664;28;20398;-84
2022/11/05 05:01:44;;;;;;;10.95;7.15;;;;;;;9.24;88.38;97960.63;4973989;28;20043;-83
2022/11/05 05:04:09;;;;;;;9.93;6.55;;;;;;;9.31;89.22;97974.56;4974280;28;20043;-84
2022/11/05 05:06:35;;;;;;;9.60;6.32;;;;;;;9.32;89.27;97961.25;4974228;28;20093;-83
2022/11/05 05:09:00;;;;;;;9.48;6.68;;;;;;;9.41;88.91;97974.97;4974372;28;20041;-83
2022/11/05 05:11:26;;;;;;;11.40;6.93;;;;;;;9.46;88.64;97969.16;4972991;28;20073;-83
2022/11/05 05:13:51;;;;;;;11.18;7.47;;;;;;;9.49;88.40;97982.69;4974028;28;20035;-84
2022/11/05 05:16:26;;;;;;;10.43;6.70;;;;;;;9.50;88.34;97986.91;4973933;28;20034;-84
2022/11/05 05:18:53;;;;;;;11.95;7.50;;;;;;;9.51;88.02;97996.38;4973658;28;20031;-83
2022/11/05 05:21:39;;;;;;;11.25;7.53;;;;;;;9.38;86.90;97989.28;4973629;28;20041;-84
2022/11/05 05:24:16;;;;;;;13.25;7.35;;;;;;;9.41;87.88;98005.59;4974601;28;20069;-84
2022/11/05 05:26:48;;;;;;;16.17;7.95;;;;;;;9.40;88.08;97999.53;4972227;28;20048;-84
2022/11/05 05:29:16;;;;;;;12.07;7.47;;;;;;;9.44;88.13;98007.81;4988439;28;20105;-84
2022/11/05 05:31:42;;;;;;;12.40;7.80;;;;;;;9.45;88.10;98015.47;4973551;28;20054;-83
2022/11/05 05:34:11;;;;;;;11.90;7.82;;;;;;;9.42;87.45;98015.06;4972631;28;20035;-83
2022/11/05 05:36:37;;;;;;;12.93;7.85;;;;;;;9.31;87.04;98013.81;4973142;28;20026;-84
2022/11/05 05:39:07;;;;;;;12.93;7.57;;;;;;;9.29;88.06;98024.44;4973284;28;20039;-83
2022/11/05 05:41:33;;;;;;;12.90;7.80;;;;;;;9.21;87.88;98024.63;4973746;28;20063;-83
2022/11/05 05:43:59;;;;;;;13.40;7.68;;;;;;;9.22;88.50;98026.22;4973536;28;20062;-83
2022/11/05 05:46:24;;;;;;;13.30;7.90;;;;;;;9.17;88.16;98026.00;4973540;28;20026;-83
2022/11/05 05:48:51;;;;;;;15.40;7.95;;;;;;;9.13;87.93;98040.47;4971087;28;20095;-84
2022/11/05 05:51:17;;;;;;;12.02;7.78;;;;;;;9.19;88.69;98052.00;4987973;28;20066;-83
2022/11/05 05:53:44;;;;;;;11.90;7.72;;;;;;;9.16;88.86;98037.47;4973008;28;20043;-84
2022/11/05 05:56:10;;;;;;;16.95;8.32;;;;;;;9.24;89.11;98047.78;4973240;28;20506;-84
2022/11/05 05:58:38;;;;;;;13.90;7.97;;;;;;;9.28;89.07;98043.78;4984847;28;20042;-84
2022/11/05 06:01:11;;;;;;;10.95;7.00;;;;;;;9.36;88.86;98046.25;4957207;28;20037;-84
2022/11/05 06:03:36;;;;;;;13.88;7.70;;;;;;;9.42;88.47;98052.53;4967070;28;20042;-83
2022/11/05 06:06:11;;;;;;;13.10;8.52;;;;;;;9.38;87.55;98059.94;4973256;28;20616;-83
2022/11/05 06:08:38;;;;;;;13.10;8.02;;;;;;;9.39;88.01;98071.22;4972688;28;20090;-84
2022/11/05 06:11:04;;;;;;;12.43;7.63;;;;;;;9.40;88.35;98062.38;4973372;28;20034;-84
2022/11/05 06:13:31;;;;;;;12.63;7.85;;;;;;;9.33;87.98;98051.88;4974596;28;20089;-84
2022/11/05 06:16:02;;;;;;;13.65;7.85;;;;;;;9.43;87.21;98074.28;4974294;28;20118;-84
2022/11/05 06:18:30;;;;;;;11.00;6.78;;;;;;;9.44;88.11;98075.88;4973137;28;20064;-84
2022/11/05 06:21:11;;;;;;;12.18;7.35;;;;;;;9.47;88.56;98067.63;4973106;28;20371;-83
2022/11/05 06:23:39;;;;;;;10.90;7.30;;;;;;;9.46;88.53;98076.50;4973798;28;20035;-83
2022/11/05 06:26:10;;;;;;;13.52;7.22;;;;;;;9.45;88.27;98059.19;4973211;28;20117;-83
2022/11/05 06:28:36;;;;;;;9.52;6.53;;;;;;;9.53;88.54;98085.19;4962628;28;20035;-83
2022/11/05 06:31:01;;;;;;;12.55;6.65;;;;;;;9.56;87.98;98074.34;4953513;28;20066;-83
2022/11/05 06:33:27;;;;;;;12.75;6.93;;;;;;;9.60;88.20;98083.44;4953695;28;20144;-84
2022/11/05 06:35:53;;;;;;;10.95;6.75;;;;;;;9.60;87.90;98078.22;4958624;28;20098;-84
2022/11/05 06:38:19;;;;;;;11.27;7.20;;;;;;;9.64;87.30;98084.66;4983852;28;20351;-84
2022/11/05 06:40:45;;;;;;;12.20;7.05;;;;;;;9.64;87.25;98087.28;4970914;28;20045;-84
2022/11/05 06:43:11;;;;;;;9.93;6.95;;;;;;;9.70;87.13;98094.34;4972360;28;20031;-84
2022/11/05 06:45:36;;;;;;;13.73;8.15;;;;;;;9.67;87.33;98100.00;4973048;28;20034;-83
2022/11/05 06:48:02;;;;;;;14.82;9.02;;;;;;;9.67;87.59;98100.00;4971234;28;20034;-83
2022/11/05 06:50:28;;;;;;;14.05;8.50;;;;;;;9.74;87.83;98100.81;4976750;28;20387;-83
2022/11/05 06:53:00;;;;;;;12.80;8.32;;;;;;;9.77;87.86;98100.44;4976863;28;20050;-84
2022/11/05 06:55:28;;;;;;;13.27;7.53;;;;;;;9.75;86.70;98109.50;4976501;28;20031;-84
2022/11/05 06:57:54;;;;;;;13.55;8.20;;;;;;;9.69;87.58;98118.94;4976747;28;20035;-84
2022/11/05 07:00:21;;;;;;;13.43;7.18;;;;;;;9.70;88.18;98120.53;4976335;28;20035;-83
2022/11/05 07:02:47;;;;;;;10.93;7.03;;;;;;;9.68;87.60;98122.56;4976484;28;20034;-83
2022/11/05 07:05:15;;;;;;;11.23;6.50;;;;;;;9.79;88.47;98127.25;4976627;28;20031;-83
2022/11/05 07:07:43;;;;;;;11.43;6.97;;;;;;;9.81;88.08;98127.84;4975974;28;20447;-83
2022/11/05 07:10:16;;;;;;;12.23;7.90;;;;;;;9.83;87.84;98115.38;4975784;28;20045;-84
2022/11/05 07:12:42;;;;;;;12.73;8.35;;;;;;;9.88;87.58;98123.47;4976363;28;20027;-84
2022/11/05 07:15:10;;;;;;;12.57;7.72;;;;;;;9.95;87.53;98126.09;4975058;28;20039;-83
2022/11/05 07:17:37;;;;;;;13.07;8.30;;;;;;;10.02;86.51;98128.78;4975964;28;20356;-84
2022/11/05 07:20:04;;;;;;;12.90;7.85;;;;;;;9.98;86.27;98128.34;4976270;28;20043;-83
2022/11/05 07:22:31;;;;;;;13.93;8.15;;;;;;;9.94;86.15;98132.34;4990936;28;20042;-84
2022/11/05 07:24:56;;;;;;;14.60;8.38;;;;;;;9.98;86.62;98151.13;4975194;28;20053;-84
2022/11/05 07:27:22;;;;;;;18.15;9.77;;;;;;;9.82;85.29;98145.19;4975371;28;20034;-84
2022/11/05 07:29:47;;;;;;;15.18;8.38;;;;;;;9.63;86.76;98135.41;4975252;28;20181;-83
2022/11/05 07:32:13;;;;;;;17.10;9.68;;;;;;;9.70;87.46;98146.72;4989613;28;20030;-84
2022/11/05 07:34:38;;;;;;;14.32;9.35;;;;;;;9.52;87.20;98139.38;4975303;28;20697;-84
2022/11/05 07:37:04;;;;;;;17.58;10.52;;;;;;;9.69;88.35;98155.59;4988733;28;20035;-83
2022/11/05 07:39:30;;;;;;;18.20;9.55;;;;;;;9.82;87.67;98167.97;4985176;28;20073;-83
2022/11/05 07:41:56;;;;;;;17.77;9.73;;;;;;;10.00;86.88;98175.31;4994774;28;20177;-84
2022/11/05 07:44:23;;;;;;;18.55;11.25;;;;;;;10.01;86.09;98176.94;4988227;28;20035;-84
2022/11/05 07:46:49;;;;;;;18.85;10.68;;;;;;;10.09;86.98;98184.66;4973030;28;20030;-84
2022/11/05 07:49:16;;;;;;;14.65;9.52;;;;;;;10.04;85.53;98181.78;4954260;29;20106;-84
2022/11/05 07:51:43;;;;;;;18.60;9.55;;;;;;;10.09;86.48;98182.84;4962784;28;20058;-84
2022/11/05 07:54:09;;;;;;;19.50;9.82;;;;;;;10.22;87.67;98184.69;4973886;28;20042;-84
2022/11/05 07:56:35;;;;;;;16.52;9.65;;;;;;;10.24;87.60;98174.03;4973813;28;20042;-83
2022/11/05 07:59:01;;;;;;;14.98;9.30;;;;;;;10.32;86.72;98192.25;4974470;28;20042;-83
2022/11/05 08:01:27;;;;;;;15.60;9.55;;;;;;;10.19;83.42;98182.47;4973430;28;20035;-83
2022/11/05 08:03:52;;;;;;;16.52;9.25;;;;;;;10.40;84.46;98190.25;4973905;28;20026;-83
2022/11/05 08:06:18;;;;;;;14.48;8.38;;;;;;;10.51;84.98;98196.75;4974677;28;20046;-84
2022/11/05 08:08:43;;;;;;;18.02;9.52;;;;;;;10.58;84.13;98194.16;4974247;28;20067;-84
2022/11/05 08:11:11;;;;;;;14.65;9.68;;;;;;;10.65;84.47;98203.66;4974208;28;20041;-84
2022/11/05 08:13:37;;;;;;;17.60;8.63;;;;;;;10.73;84.92;98200.03;4974600;28;20066;-84
2022/11/05 08:16:04;;;;;;;15.27;9.70;;;;;;;10.70;83.18;98205.69;4988872;28;20034;-84
2022/11/05 08:18:31;;;;;;;13.63;9.05;;;;;;;10.48;81.43;98201.56;4973858;28;20050;-83
2022/11/05 08:21:02;;;;;;;16.08;9.43;;;;;;;10.37;82.49;98197.69;4973520;28;20027;-84
2022/11/05 08:23:30;;;;;;;16.20;9.68;;;;;;;10.39;83.90;98214.06;4972753;28;20109;-84
2022/11/05 08:25:56;;;;;;;14.13;8.80;;;;;;;10.35;84.58;98208.38;4973532;28;20031;-83
2022/11/05 08:28:24;;;;;;;14.38;9.20;;;;;;;10.34;83.22;98221.69;4973497;28;20108;-84
2022/11/05 08:30:53;;;;;;;17.13;9.80;;;;;;;10.48;85.32;98217.31;4973628;28;20042;-84
2022/11/05 08:33:20;;;;;;;16.75;8.95;;;;;;;10.56;84.11;98227.66;4973970;28;20201;-84
2022/11/05 08:35:47;;;;;;;16.77;9.65;;;;;;;10.43;82.73;98237.06;4973952;28;20101;-84
2022/11/05 08:38:16;;;;;;;17.50;10.35;;;;;;;10.29;82.64;98230.13;4973483;28;20039;-84
2022/11/05 08:40:52;;;;;;;15.95;9.02;;;;;;;10.28;82.51;98235.56;4973587;28;20105;-84
2022/11/05 08:43:17;;;;;;;14.93;8.88;;;;;;;10.23;83.18;98238.78;4973918;28;20066;-84
2022/11/05 08:45:43;;;;;;;16.95;9.63;;;;;;;10.15;82.94;98237.09;4973804;28;20129;-84
2022/11/05 08:48:13;;;;;;;18.05;8.90;;;;;;;10.20;84.36;98241.75;4970430;28;20105;-84
2022/11/05 08:50:40;;;;;;;16.35;9.98;;;;;;;10.20;83.46;98239.13;4989894;28;20243;-83
2022/11/05 08:53:07;;;;;;;15.43;9.40;;;;;;;10.22;83.94;98228.44;4970403;28;20379;-83
2022/11/05 08:55:33;;;;;;;14.30;8.98;;;;;;;10.35;85.18;98247.69;4972626;28;20031;-84
2022/11/05 08:58:02;;;;;;;18.90;10.60;;;;;;;10.30;83.26;98241.41;4972706;28;20037;-84
2022/11/05 09:00:33;;;;;;;18.33;10.43;;;;;;;10.40;84.45;98247.13;4991092;28;20627;-83
2022/11/05 09:03:00;;;;;;;15.38;9.68;;;;;;;10.37;83.65;98247.50;4973736;28;20506;-86
2022/11/05 09:05:27;;;;;;;16.85;9.68;;;;;;;10.55;86.07;98249.59;4973907;28;20046;-84
2022/11/05 09:07:52;;;;;;;17.90;9.88;;;;;;;10.63;85.26;98252.06;4974442;28;20058;-83
2022/11/05 09:10:18;;;;;;;16.33;9.65;;;;;;;10.73;84.32;98252.50;4959167;28;20050;-85
2022/11/05 09:12:43;;;;;;;18.20;10.68;;;;;;;10.62;82.12;98248.66;4971428;28;20428;-84
2022/11/05 09:15:09;;;;;;;18.50;10.85;;;;;;;10.73;82.82;98249.88;4988287;28;20035;-84
2022/11/05 09:17:35;;;;;;;17.65;10.10;;;;;;;10.83;82.80;98242.44;4973412;28;20505;-85
2022/11/05 09:20:02;;;;;;;14.45;9.43;;;;;;;10.84;81.06;98248.50;4973149;28;20670;-84
2022/11/05 09:22:28;;;;;;;16.58;9.90;;;;;;;10.74;82.30;98243.66;4972768;28;20042;-85
2022/11/05 09:24:54;;;;;;;19.48;10.85;;;;;;;10.74;80.15;98250.72;4972606;28;20043;-85
2022/11/05 09:27:19;;;;;;;17.98;11.05;;;;;;;10.63;80.53;98241.59;4972803;28;20578;-84
2022/11/05 09:29:44;;;;;;;21.38;10.40;;;;;;;10.76;80.99;98246.06;4988037;28;20537;-85
2022/11/05 09:32:10;;;;;;;15.40;9.65;;;;;;;10.75;80.48;98258.38;4973158;28;20042;-84
2022/11/05 09:34:36;;;;;;;15.30;9.52;;;;;;;10.97;82.05;98257.25;4968344;28;20039;-84
2022/11/05 09:37:02;;;;;;;18.20;11.52;;;;;;;11.09;81.02;98246.13;4971526;28;20093;-85
2022/11/05 09:39:28;;;;;;;16.70;10.15;;;;;;;11.30;81.42;98258.31;4972659;28;20039;-84
2022/11/05 09:42:03;;;;;;;16.45;10.65;;;;;;;11.32;81.12;98251.84;4972859;28;20485;-84
2022/11/05 09:45:02;;;;;;;15.05;9.15;;;;;;;11.46;80.12;98271.88;4971282;28;20064;-84
2022/11/05 09:47:52;;;;;;;15.23;9.55;;;;;;;11.46;79.59;98260.56;4970336;28;20031;-84
2022/11/05 09:50:29;;;;;;;17.00;10.60;;;;;;;11.58;78.71;98266.81;4973090;28;20037;-84
2022/11/05 09:52:55;;;;;;;15.55;9.45;;;;;;;11.60;78.87;98264.78;4972970;28;20043;-85
2022/11/05 09:55:44;;;;;;;18.65;10.23;;;;;;;11.31;77.82;98259.91;4971618;28;20049;-85
2022/11/05 09:58:39;;;;;;;17.52;10.15;;;;;;;11.15;78.73;98276.84;4968147;28;20033;-84
2022/11/05 10:01:14;;;;;;;17.23;10.07;;;;;;;11.18;82.21;98281.72;4952141;29;20126;-85
2022/11/05 10:03:49;;;;;;;17.02;10.48;;;;;;;11.25;80.85;98277.28;4952708;28;20035;-84
2022/11/05 10:06:24;;;;;;;14.88;9.05;;;;;;;11.36;80.30;98279.31;4972215;28;20035;-84
2022/11/05 10:08:57;;;;;;;17.45;10.13;;;;;;;11.17;78.91;98286.16;4971677;28;20038;-84
2022/11/05 10:11:39;;;;;;;17.60;10.52;;;;;;;11.18;79.69;98279.09;4972165;28;20039;-84
2022/11/05 10:14:21;;;;;;;18.55;10.07;;;;;;;11.28;80.30;98289.22;4972323;28;20045;-84
2022/11/05 10:17:06;;;;;;;16.45;10.43;;;;;;;11.37;78.43;98283.56;4979103;28;20038;-84
2022/11/05 10:19:46;;;;;;;15.57;10.13;;;;;;;11.71;82.04;98279.16;4957565;28;20031;-84
2022/11/05 10:22:16;;;;;;;17.08;10.38;;;;;;;11.84;77.20;98281.81;4968952;28;20043;-84
2022/11/05 10:24:46;;;;;;;16.27;10.57;;;;;;;11.78;76.45;98285.22;4971374;28;20498;-85
2022/11/05 10:27:27;;;;;;;16.92;10.77;;;;;;;11.63;76.30;98274.88;4971625;28;20102;-85
2022/11/05 10:29:54;;;;;;;16.45;9.43;;;;;;;11.74;76.91;98291.88;4971142;28;20130;-85
2022/11/05 10:32:29;;;;;;;18.02;10.57;;;;;;;11.72;76.39;98281.56;4970539;28;20043;-86
2022/11/05 10:35:04;;;;;;;17.08;10.27;;;;;;;11.85;74.97;98288.69;4971868;28;20046;-85
2022/11/05 10:37:32;;;;;;;18.05;10.13;;;;;;;12.04;76.46;98294.91;4971331;28;20101;-84
2022/11/05 10:39:58;;;;;;;13.90;10.13;;;;;;;12.06;75.48;98292.91;4972034;28;20049;-83
2022/11/05 10:42:29;;;;;;;14.65;9.18;;;;;;;12.17;77.19;98291.47;4971873;28;20038;-84
2022/11/05 10:45:05;;;;;;;16.13;9.80;;;;;;;11.95;74.31;98289.09;4972014;28;20094;-84
2022/11/05 10:48:11;;;;;;;16.00;9.43;;;;;;;11.96;74.57;98306.47;4970540;28;20070;-84
2022/11/05 10:50:38;;;;;;;18.13;10.10;;;;;;;11.99;76.75;98307.88;4972172;28;20093;-83
2022/11/05 10:53:17;;;;;;;14.75;10.15;;;;;;;11.96;76.83;98298.56;4969587;28;20449;-84
2022/11/05 10:55:49;;;;;;;14.80;10.07;;;;;;;11.68;75.53;98308.44;4971414;28;20035;-84
2022/11/05 10:58:14;;;;;;;16.58;10.77;;;;;;;11.62;76.81;98309.25;4972333;28;20046;-84
2022/11/05 11:00:43;;;;;;;17.58;10.05;;;;;;;11.57;76.19;98315.09;4971866;28;20069;-84
2022/11/05 11:03:36;;;;;;;17.73;9.95;;;;;;;11.47;75.12;98304.19;4971832;28;20367;-84
2022/11/05 11:06:11;;;;;;;17.42;9.90;;;;;;;11.62;76.27;98309.25;4971691;28;20035;-84
2022/11/05 11:08:37;;;;;;;17.90;9.88;;;;;;;11.62;75.98;98311.88;4986380;28;20109;-83
2022/11/05 11:11:10;;;;;;;17.05;10.07;;;;;;;11.82;76.60;98309.31;4983643;28;20030;-83
2022/11/05 11:14:02;;;;;;;17.15;9.38;;;;;;;11.83;75.13;98311.72;4970649;28;20074;-85
2022/11/05 11:16:45;;;;;;;14.00;9.23;;;;;;;11.65;74.50;98303.59;4978649;28;20046;-84
2022/11/05 11:19:32;;;;;;;15.43;9.10;;;;;;;11.63;75.64;98301.16;4970420;28;20094;-84
2022/11/05 11:22:03;;;;;;;17.48;9.75;;;;;;;11.48;73.50;98306.59;4971280;28;20047;-83
2022/11/05 11:24:37;;;;;;;15.63;9.02;;;;;;;11.51;76.15;98308.00;4967016;28;20082;-83
2022/11/05 11:27:09;;;;;;;16.60;10.18;;;;;;;11.48;74.43;98303.19;4971416;28;20394;-84
2022/11/05 11:29:38;;;;;;;17.13;9.45;;;;;;;11.67;76.50;98307.63;4971570;28;20055;-84
2022/11/05 11:32:17;;;;;;;17.73;10.75;;;;;;;11.95;77.68;98315.38;4971545;28;20042;-84
2022/11/05 11:34:48;;;;;;;19.35;9.77;;;;;;;11.95;74.85;98314.56;4986432;28;20035;-83
2022/11/05 11:37:40;;;;;;;16.10;10.13;;;;;;;11.93;74.32;98288.47;4974447;28;20042;-84
2022/11/05 11:40:19;;;;;;;13.82;9.23;;;;;;;12.16;73.72;98310.88;4975288;28;20042;-84
2022/11/05 11:42:49;;;;;;;16.65;10.10;;;;;;;12.25;73.96;98309.69;4975209;28;20034;-84
2022/11/05 11:45:50;;;;;;;15.53;9.20;;;;;;;12.20;72.97;98307.66;4974767;28;20447;-84
2022/11/05 11:48:22;;;;;;;15.23;9.75;;;;;;;12.14;72.68;98294.53;4963080;28;20027;-85
2022/11/05 11:50:49;;;;;;;15.65;9.27;;;;;;;12.25;74.99;98304.41;4974483;28;20507;-84
2022/11/05 11:53:20;;;;;;;17.40;9.65;;;;;;;12.21;73.11;98308.47;4974445;28;20065;-84
2022/11/05 11:56:03;;;;;;;16.90;9.43;;;;;;;12.10;73.47;98312.50;4970468;28;20050;-84
2022/11/05 11:59:01;;;;;;;16.25;10.25;;;;;;;11.80;73.86;98317.34;4973636;28;20070;-84
2022/11/05 12:01:47;;;;;;;14.95;9.32;;;;;;;11.84;75.48;98323.84;4974174;28;20046;-84
2022/11/05 12:04:33;;;;;;;16.20;9.57;;;;;;;11.87;76.33;98315.56;4974844;28;20138;-83
2022/11/05 12:07:32;;;;;;;17.20;9.68;;;;;;;11.68;75.05;98311.88;4974657;28;20390;-84
2022/11/05 12:10:27;;;;;;;14.35;9.80;;;;;;;11.81;74.92;98316.34;4974759;28;20459;-84
2022/11/05 12:13:18;;;;;;;18.42;9.50;;;;;;;11.94;76.08;98324.28;4990530;28;20035;-84
2022/11/05 12:15:56;;;;;;;16.17;9.03;;;;;;;11.98;76.19;98314.13;4974661;28;20046;-84
2022/11/05 12:18:43;;;;;;;15.63;9.60;;;;;;;12.17;77.53;98312.50;4974208;28;20490;-84
2022/11/05 12:21:35;;;;;;;15.65;9.73;;;;;;;11.98;73.01;98314.13;4973260;28;20050;-84
2022/11/05 12:24:34;;;;;;;15.73;9.88;;;;;;;11.99;74.33;98311.31;4974160;28;21055;-84
2022/11/05 12:27:34;;;;;;;17.75;9.02;;;;;;;12.26;76.32;98306.03;4989467;28;20039;-84
2022/11/05 12:30:17;;;;;;;13.85;9.00;;;;;;;12.41;75.26;98309.22;4973413;28;20051;-84
2022/11/05 12:33:34;;;;;;;12.75;8.40;;;;;;;12.55;71.30;98312.66;4973314;28;20070;-84
2022/11/05 12:36:53;;;;;;;14.07;8.10;;;;;;;12.64;72.22;98307.94;4973576;28;20077;-84
2022/11/05 12:40:02;;;;;;;12.68;8.60;;;;;;;12.67;71.94;98312.81;4971291;28;20062;-83
2022/11/05 12:42:55;;;;;;;13.35;8.65;;;;;;;12.76;72.36;98311.56;4973238;28;20169;-83
2022/11/05 12:45:54;;;;;;;14.57;8.38;;;;;;;12.63;70.30;98307.16;4974766;28;20069;-84